createdAt,value
2018-05-16T00:01:05.755Z,10.00
2018-05-16T00:03:33.303Z,10.00
2018-05-16T00:06:00.832Z,10.07
2018-05-16T00:08:28.336Z,11.17
2018-05-16T00:10:55.842Z,10.57
2018-05-16T00:13:23.347Z,11.53
2018-05-16T00:15:50.882Z,12.27
2018-05-16T00:18:18.390Z,12.40
2018-05-16T00:20:45.899Z,11.20
2018-05-16T00:23:13.720Z,12.17
2018-05-16T00:25:41.226Z,11.73
2018-05-16T00:28:08.740Z,11.80
2018-05-16T00:30:36.253Z,10.60
2018-05-16T00:33:03.750Z,9.90
2018-05-16T00:35:31.260Z,12.23
2018-05-16T00:37:58.770Z,11.00
2018-05-16T00:40:26.318Z,10.67
2018-05-16T00:42:53.819Z,11.93
2018-05-16T00:45:21.321Z,11.70
2018-05-16T00:47:48.820Z,11.53
2018-05-16T00:50:16.385Z,12.00
2018-05-16T00:52:43.978Z,10.73
2018-05-16T00:55:11.495Z,11.90
2018-05-16T00:57:38.994Z,11.63
2018-05-16T01:00:06.542Z,11.50
2018-05-16T01:02:34.142Z,10.87
2018-05-16T01:05:01.635Z,8.33
2018-05-16T01:07:29.127Z,8.00
2018-05-16T01:09:56.640Z,8.80
2018-05-16T01:12:24.135Z,6.93
2018-05-16T01:14:51.622Z,7.33
2018-05-16T01:17:19.121Z,7.17
2018-05-16T01:19:46.618Z,5.90
2018-05-16T01:22:14.119Z,4.87
2018-05-16T01:24:41.618Z,5.37
2018-05-16T01:27:09.116Z,4.80
2018-05-16T01:29:36.664Z,4.13
2018-05-16T01:32:04.192Z,4.00
2018-05-16T01:34:31.696Z,3.50
2018-05-16T01:36:59.237Z,3.10
2018-05-16T01:39:26.731Z,3.07
2018-05-16T01:41:54.236Z,2.40
2018-05-16T01:44:21.749Z,2.00
2018-05-16T01:46:49.258Z,2.20
2018-05-16T01:49:19.590Z,1.87
2018-05-16T01:51:47.081Z,1.77
2018-05-16T01:54:14.576Z,1.80
2018-05-16T01:56:42.072Z,2.00
2018-05-16T01:59:09.563Z,1.67
2018-05-16T02:01:37.054Z,2.07
2018-05-16T02:04:04.571Z,1.93
2018-05-16T02:06:32.115Z,2.00
2018-05-16T02:08:59.648Z,2.70
2018-05-16T02:11:27.144Z,2.00
2018-05-16T02:13:54.628Z,1.90
2018-05-16T02:16:22.127Z,1.87
2018-05-16T02:18:49.624Z,1.87
2018-05-16T02:21:17.116Z,1.60
2018-05-16T02:23:44.611Z,1.40
2018-05-16T02:26:12.108Z,1.57
2018-05-16T02:28:39.607Z,1.67
2018-05-16T02:31:07.190Z,1.30
2018-05-16T02:33:34.681Z,1.50
2018-05-16T02:36:02.184Z,1.57
2018-05-16T02:38:29.675Z,3.17
2018-05-16T02:40:57.188Z,4.97
2018-05-16T02:43:24.690Z,5.40
2018-05-16T02:45:52.200Z,5.63
2018-05-16T02:48:19.709Z,4.30
2018-05-16T02:50:47.224Z,3.23
2018-05-16T02:53:14.722Z,2.73
2018-05-16T02:55:42.223Z,2.17
2018-05-16T02:58:09.760Z,2.17
2018-05-16T03:00:37.318Z,2.63
2018-05-16T03:03:04.830Z,2.80
2018-05-16T03:05:32.339Z,2.60
2018-05-16T03:07:59.847Z,3.50
2018-05-16T03:10:27.408Z,3.40
2018-05-16T03:12:54.931Z,3.10
2018-05-16T03:15:22.454Z,3.07
2018-05-16T03:17:49.943Z,3.20
2018-05-16T03:20:17.493Z,3.87
2018-05-16T03:22:44.995Z,3.13
2018-05-16T03:25:12.495Z,2.80
2018-05-16T03:27:40.016Z,2.93
2018-05-16T03:30:07.590Z,2.60
2018-05-16T03:32:35.096Z,2.33
2018-05-16T03:35:02.659Z,1.67
2018-05-16T03:37:30.171Z,2.00
2018-05-16T03:39:57.669Z,1.50
2018-05-16T03:42:25.168Z,1.60
2018-05-16T03:44:52.676Z,1.40
2018-05-16T03:47:20.192Z,1.60
2018-05-16T03:49:47.740Z,1.70
2018-05-16T03:52:15.263Z,1.63
2018-05-16T03:54:42.774Z,1.60
2018-05-16T04:00:25.798Z,1.80
2018-05-16T04:03:05.310Z,2.40
2018-05-16T04:05:32.839Z,1.43
2018-05-16T04:08:00.357Z,1.20
2018-05-16T04:10:27.853Z,1.10
2018-05-16T04:12:55.354Z,1.10
2018-05-16T04:15:22.888Z,1.10
2018-05-16T04:17:50.419Z,1.60
2018-05-16T04:20:17.931Z,1.37
2018-05-16T04:22:45.428Z,1.50
2018-05-16T04:25:13.528Z,1.50
2018-05-16T04:27:41.032Z,1.70
2018-05-16T04:30:08.536Z,1.30
2018-05-16T04:32:36.105Z,1.33
2018-05-16T04:35:03.567Z,1.30
2018-05-16T04:37:31.070Z,1.30
2018-05-16T04:39:58.559Z,1.30
2018-05-16T04:42:26.083Z,1.37
2018-05-16T04:44:53.586Z,1.43
2018-05-16T04:47:21.126Z,1.47
2018-05-16T04:49:48.652Z,1.50
2018-05-16T04:52:16.149Z,1.53
2018-05-16T04:54:43.654Z,1.53
2018-05-16T04:57:11.147Z,1.40
2018-05-16T04:59:38.663Z,1.47
2018-05-16T05:02:06.159Z,1.60
2018-05-16T05:04:33.699Z,1.60
2018-05-16T05:07:01.197Z,2.23
2018-05-16T05:09:28.697Z,2.13
2018-05-16T05:11:56.203Z,2.87
2018-05-16T05:14:23.710Z,2.63
2018-05-16T05:16:51.225Z,2.63
2018-05-16T05:19:18.731Z,1.90
2018-05-16T05:21:46.227Z,2.13
2018-05-16T05:24:13.734Z,2.53
2018-05-16T05:26:41.224Z,2.80
2018-05-16T05:29:08.714Z,2.50
2018-05-16T05:31:36.214Z,3.20
2018-05-16T05:34:03.714Z,3.47
2018-05-16T05:36:31.242Z,3.80
2018-05-16T05:38:58.734Z,3.87
2018-05-16T05:41:26.300Z,3.90
2018-05-16T05:43:53.812Z,3.90
2018-05-16T05:46:21.315Z,4.00
2018-05-16T05:48:48.804Z,5.00
2018-05-16T05:51:16.304Z,3.83
2018-05-16T05:53:43.794Z,4.40
2018-05-16T05:56:11.289Z,4.23
2018-05-16T05:58:38.782Z,4.30
2018-05-16T06:01:06.280Z,4.60
2018-05-16T06:03:33.778Z,4.93
2018-05-16T06:06:01.271Z,3.93
2018-05-16T06:08:28.789Z,3.00
2018-05-16T06:10:56.294Z,3.20
2018-05-16T06:13:23.785Z,3.20
2018-05-16T06:15:51.284Z,2.60
2018-05-16T06:18:18.779Z,3.30
2018-05-16T06:20:46.286Z,7.43
2018-05-16T06:23:14.576Z,4.17
2018-05-16T06:25:42.159Z,2.17
2018-05-16T06:28:09.693Z,2.20
2018-05-16T06:30:37.223Z,2.47
2018-05-16T06:33:04.754Z,3.20
2018-05-16T06:35:32.262Z,3.37
2018-05-16T06:37:59.765Z,3.00
2018-05-16T06:40:27.273Z,3.10
2018-05-16T06:42:54.771Z,3.10
2018-05-16T06:45:22.314Z,3.03
2018-05-16T06:47:49.832Z,2.73
2018-05-16T06:50:17.324Z,2.93
2018-05-16T06:52:44.836Z,3.30
2018-05-16T06:55:12.367Z,2.17
2018-05-16T06:57:39.866Z,2.50
2018-05-16T07:00:07.373Z,2.50
2018-05-16T07:02:34.887Z,2.60
2018-05-16T07:05:02.389Z,3.07
2018-05-16T07:07:29.948Z,2.43
2018-05-16T07:09:57.468Z,3.03
2018-05-16T07:12:24.971Z,2.90
2018-05-16T07:14:52.484Z,2.80
2018-05-16T07:17:19.987Z,2.60
2018-05-16T07:19:47.496Z,3.10
2018-05-16T07:22:14.991Z,2.50
2018-05-16T07:24:42.520Z,2.50
2018-05-16T07:27:14.849Z,2.53
2018-05-16T07:29:42.359Z,2.47
2018-05-16T07:32:09.864Z,2.20
2018-05-16T07:34:37.369Z,2.37
2018-05-16T07:37:04.875Z,4.13
2018-05-16T07:39:32.431Z,2.20
2018-05-16T07:41:59.932Z,2.57
2018-05-16T07:44:28.643Z,2.60
2018-05-16T07:46:56.195Z,2.40
2018-05-16T07:49:23.683Z,2.60
2018-05-16T07:51:51.236Z,2.33
2018-05-16T07:54:18.739Z,2.50
2018-05-16T07:56:46.278Z,2.83
2018-05-16T07:59:13.779Z,2.37
2018-05-16T08:01:41.295Z,2.80
2018-05-16T08:04:08.789Z,2.17
2018-05-16T08:06:36.299Z,2.03
2018-05-16T08:09:03.841Z,2.43
2018-05-16T08:11:31.336Z,2.60
2018-05-16T08:13:58.849Z,2.70
2018-05-16T08:16:26.353Z,3.30
2018-05-16T08:18:53.860Z,7.07
2018-05-16T08:21:21.351Z,5.10
2018-05-16T08:23:48.846Z,3.13
2018-05-16T08:26:16.351Z,3.27
2018-05-16T08:28:43.962Z,3.67
2018-05-16T08:31:11.499Z,3.70
2018-05-16T08:33:39.007Z,3.73
2018-05-16T08:36:06.507Z,3.07
2018-05-16T08:38:34.045Z,2.77
2018-05-16T08:41:01.555Z,2.47
2018-05-16T08:43:29.057Z,2.97
2018-05-16T08:45:56.587Z,2.50
2018-05-16T08:48:24.079Z,2.20
2018-05-16T08:50:51.566Z,2.27
2018-05-16T08:53:19.063Z,2.50
2018-05-16T08:55:46.571Z,2.43
2018-05-16T08:58:14.079Z,2.70
2018-05-16T09:00:41.584Z,2.60
2018-05-16T09:03:09.096Z,2.80
2018-05-16T09:05:36.609Z,3.00
2018-05-16T09:08:04.138Z,3.00
2018-05-16T09:10:31.652Z,2.63
2018-05-16T09:12:59.168Z,2.80
2018-05-16T09:15:26.665Z,2.60
2018-05-16T09:17:54.366Z,3.00
2018-05-16T09:20:21.912Z,2.60
2018-05-16T09:22:49.417Z,3.07
2018-05-16T09:25:16.996Z,3.00
2018-05-16T09:27:44.456Z,2.37
2018-05-16T09:30:11.952Z,2.47
2018-05-16T09:32:39.452Z,2.30
2018-05-16T09:35:06.985Z,2.40
2018-05-16T09:37:34.487Z,2.50
2018-05-16T09:40:01.983Z,2.50
2018-05-16T09:42:29.478Z,2.43
2018-05-16T09:44:56.994Z,2.13
2018-05-16T09:47:24.490Z,2.60
2018-05-16T09:49:51.986Z,1.97
2018-05-16T09:52:19.481Z,2.10
2018-05-16T09:54:46.971Z,1.93
2018-05-16T09:57:14.469Z,1.93
2018-05-16T09:59:41.984Z,2.00
2018-05-16T10:02:09.472Z,2.20
2018-05-16T10:04:36.964Z,2.57
2018-05-16T10:07:04.481Z,2.37
2018-05-16T10:09:32.025Z,2.43
2018-05-16T10:11:59.585Z,2.10
2018-05-16T10:14:27.113Z,2.73
2018-05-16T10:16:54.658Z,2.77
2018-05-16T10:19:22.170Z,4.40
2018-05-16T10:21:49.679Z,2.60
2018-05-16T10:24:17.257Z,2.50
2018-05-16T10:26:44.796Z,2.60
2018-05-16T10:29:12.302Z,2.40
2018-05-16T10:31:39.880Z,2.20
2018-05-16T10:34:07.378Z,1.80
2018-05-16T10:36:34.936Z,1.77
2018-05-16T10:39:02.451Z,1.90
2018-05-16T10:41:30.013Z,1.90
2018-05-16T10:43:57.538Z,1.57
2018-05-16T10:46:25.091Z,1.73
2018-05-16T10:48:52.641Z,1.63
2018-05-16T10:51:20.189Z,1.70
2018-05-16T10:53:47.686Z,1.90
2018-05-16T10:56:15.282Z,1.60
2018-05-16T10:58:42.828Z,1.73
2018-05-16T11:01:10.319Z,1.50
2018-05-16T11:03:37.820Z,1.80
2018-05-16T11:06:05.319Z,1.60
2018-05-16T11:08:32.820Z,2.03
2018-05-16T11:11:00.366Z,1.70
2018-05-16T11:13:27.919Z,1.57
2018-05-16T11:15:55.402Z,1.40
2018-05-16T11:18:22.929Z,1.33
2018-05-16T11:20:50.437Z,1.50
2018-05-16T11:23:17.939Z,1.27
2018-05-16T11:25:45.484Z,1.47
2018-05-16T11:28:12.991Z,1.60
2018-05-16T11:30:40.486Z,1.50
2018-05-16T11:33:07.982Z,1.70
2018-05-16T11:35:35.527Z,1.50
2018-05-16T11:38:03.023Z,2.05
2018-05-16T11:40:30.576Z,1.30
2018-05-16T11:42:58.078Z,1.67
2018-05-16T11:45:25.568Z,1.73
2018-05-16T11:47:53.059Z,1.70
2018-05-16T11:50:20.579Z,1.77
2018-05-16T11:52:48.089Z,1.70
2018-05-16T11:55:15.603Z,1.60
2018-05-16T11:57:43.097Z,1.77
2018-05-16T12:00:10.721Z,1.63
2018-05-16T12:02:38.213Z,1.90
2018-05-16T12:05:05.724Z,1.70
2018-05-16T12:07:33.236Z,1.70
2018-05-16T12:10:00.740Z,1.77
2018-05-16T12:12:28.233Z,1.90
2018-05-16T12:14:55.788Z,1.90
2018-05-16T12:17:23.294Z,2.10
2018-05-16T12:19:50.810Z,1.83
2018-05-16T12:22:18.330Z,2.05
2018-05-16T12:24:45.860Z,1.50
2018-05-16T12:27:13.356Z,1.60
2018-05-16T12:29:40.865Z,2.15
2018-05-16T12:32:08.375Z,1.90
2018-05-16T12:34:35.867Z,1.60
2018-05-16T12:37:03.404Z,1.90
2018-05-16T12:39:30.923Z,1.30
2018-05-16T12:45:29.304Z,1.87
2018-05-16T12:47:56.853Z,2.00
2018-05-16T12:50:24.405Z,1.83
2018-05-16T12:52:51.913Z,1.80
2018-05-16T12:55:19.479Z,1.52
2018-05-16T12:57:47.001Z,1.60
2018-05-16T13:00:14.545Z,1.75
2018-05-16T13:02:42.053Z,1.58
2018-05-16T13:05:09.586Z,1.62
2018-05-16T13:07:37.091Z,1.55
2018-05-16T13:10:04.598Z,1.48
2018-05-16T13:12:32.126Z,1.50
2018-05-16T13:14:59.620Z,1.70
2018-05-16T13:17:27.127Z,1.60
2018-05-16T13:22:28.483Z,1.52
2018-05-16T13:24:56.039Z,1.70
2018-05-16T13:27:23.554Z,1.70
2018-05-16T13:29:51.051Z,1.50
2018-05-16T13:32:18.559Z,1.48
2018-05-16T13:34:46.076Z,1.90
2018-05-16T13:37:13.573Z,1.60
2018-05-16T13:39:41.073Z,1.55
2018-05-16T13:42:08.567Z,1.50
2018-05-16T13:44:36.079Z,1.80
2018-05-16T13:47:03.600Z,1.55
2018-05-16T13:49:31.139Z,1.70
2018-05-16T13:51:58.637Z,2.08
2018-05-16T13:54:26.144Z,1.37
2018-05-16T13:56:53.643Z,1.70
2018-05-16T13:59:21.152Z,1.80
2018-05-16T14:01:48.649Z,1.45
2018-05-16T14:04:16.163Z,1.83
2018-05-16T14:06:43.658Z,1.70
2018-05-16T14:09:11.165Z,1.83
2018-05-16T14:11:38.720Z,1.62
2018-05-16T14:14:06.230Z,1.58
2018-05-16T14:16:33.839Z,1.50
2018-05-16T14:19:01.342Z,1.70
2018-05-16T14:21:28.859Z,1.95
2018-05-16T14:23:56.373Z,1.50
2018-05-16T14:26:23.887Z,1.85
2018-05-16T14:28:51.419Z,2.10
2018-05-16T14:31:18.911Z,1.80
2018-05-16T14:33:46.424Z,1.90
2018-05-16T14:36:14.062Z,1.70
2018-05-16T14:38:41.501Z,1.80
2018-05-16T14:41:09.016Z,1.70
2018-05-16T14:43:36.541Z,1.80
2018-05-16T14:46:04.089Z,1.70
2018-05-16T14:48:31.683Z,1.70
2018-05-16T14:50:59.154Z,1.42
2018-05-16T14:53:26.670Z,1.50
2018-05-16T14:55:54.172Z,1.60
2018-05-16T14:58:21.682Z,1.50
2018-05-16T15:00:49.186Z,1.70
2018-05-16T15:03:17.459Z,1.70
2018-05-16T15:05:44.970Z,1.60
2018-05-16T15:08:12.471Z,1.40
2018-05-16T15:10:39.974Z,1.58
2018-05-16T15:13:07.503Z,1.58
2018-05-16T15:15:35.020Z,1.30
2018-05-16T15:18:02.517Z,1.60
2018-05-16T15:20:30.060Z,1.70
2018-05-16T15:22:57.546Z,1.65
2018-05-16T15:25:26.009Z,1.73
2018-05-16T15:27:53.517Z,1.70
2018-05-16T15:30:21.023Z,1.70
2018-05-16T15:32:48.521Z,1.20
2018-05-16T15:35:16.015Z,1.45
2018-05-16T15:37:43.520Z,1.52
2018-05-16T15:40:11.033Z,1.60
2018-05-16T15:42:38.533Z,1.90
2018-05-16T15:45:06.039Z,1.50
2018-05-16T15:47:33.589Z,2.10
2018-05-16T15:50:01.092Z,1.53
2018-05-16T15:52:28.588Z,1.90
2018-05-16T15:54:56.091Z,1.50
2018-05-16T15:57:23.603Z,2.00
2018-05-16T15:59:51.097Z,1.60
2018-05-16T16:02:18.597Z,1.50
2018-05-16T16:04:46.111Z,1.75
2018-05-16T16:07:13.612Z,1.27
2018-05-16T16:09:41.126Z,1.60
2018-05-16T16:12:08.633Z,1.30
2018-05-16T16:14:36.163Z,1.62
2018-05-16T16:17:03.675Z,1.42
2018-05-16T16:19:31.186Z,1.35
2018-05-16T16:21:58.744Z,1.80
2018-05-16T16:24:26.242Z,1.70
2018-05-16T16:26:53.761Z,1.80
2018-05-16T16:29:21.280Z,1.58
2018-05-16T16:31:48.821Z,1.92
2018-05-16T16:34:16.369Z,1.70
2018-05-16T16:36:43.884Z,1.60
2018-05-16T16:39:11.425Z,1.48
2018-05-16T16:41:38.896Z,1.60
2018-05-16T16:44:06.387Z,1.50
2018-05-16T16:46:34.848Z,1.75
2018-05-16T16:49:02.355Z,2.00
2018-05-16T16:51:29.864Z,1.60
2018-05-16T16:53:57.358Z,1.50
2018-05-16T16:56:24.876Z,1.62
2018-05-16T16:58:52.394Z,1.62
2018-05-16T17:01:19.926Z,1.50
2018-05-16T17:03:47.455Z,1.73
2018-05-16T17:06:14.952Z,2.35
2018-05-16T17:08:45.198Z,1.70
2018-05-16T17:11:12.721Z,1.85
2018-05-16T17:13:40.262Z,2.47
2018-05-16T17:16:07.767Z,3.08
2018-05-16T17:18:35.276Z,1.92
2018-05-16T17:21:02.785Z,1.87
2018-05-16T17:23:30.306Z,1.87
2018-05-16T17:25:57.808Z,2.33
2018-05-16T17:28:25.317Z,2.33
2018-05-16T17:30:53.599Z,2.10
2018-05-16T17:33:21.103Z,2.03
2018-05-16T17:35:48.606Z,2.10
2018-05-16T17:38:16.132Z,2.10
2018-05-16T17:40:43.675Z,2.37
2018-05-16T17:43:11.175Z,2.33
2018-05-16T17:45:38.682Z,2.90
2018-05-16T17:48:06.202Z,2.80
2018-05-16T17:50:33.733Z,2.27
2018-05-16T17:53:01.234Z,2.20
2018-05-16T17:55:28.735Z,2.50
2018-05-16T17:57:56.228Z,2.10
2018-05-16T18:00:23.772Z,2.63
2018-05-16T18:02:51.272Z,3.00
2018-05-16T18:05:18.823Z,2.97
2018-05-16T18:07:46.343Z,2.70
2018-05-16T18:10:13.874Z,2.20
2018-05-16T18:12:41.433Z,2.40
2018-05-16T18:15:20.846Z,2.57
2018-05-16T18:17:48.357Z,2.70
2018-05-16T18:20:15.869Z,2.70
2018-05-16T18:22:43.386Z,2.67
2018-05-16T18:25:10.925Z,2.27
2018-05-16T18:27:38.520Z,2.33
2018-05-16T18:30:06.073Z,2.80
2018-05-16T18:32:33.772Z,2.50
2018-05-16T18:35:01.287Z,2.60
2018-05-16T18:37:28.812Z,2.60
2018-05-16T18:39:56.314Z,2.87
2018-05-16T18:42:23.913Z,3.03
2018-05-16T18:44:51.371Z,2.90
2018-05-16T18:47:18.896Z,4.90
2018-05-16T18:49:46.403Z,3.60
2018-05-16T18:52:13.895Z,3.80
2018-05-16T18:54:41.388Z,3.43
2018-05-16T18:57:08.948Z,2.57
2018-05-16T18:59:36.446Z,3.33
2018-05-16T19:02:03.965Z,2.73
2018-05-16T19:04:31.471Z,2.80
2018-05-16T19:06:59.276Z,3.00
2018-05-16T19:09:26.778Z,3.17
2018-05-16T19:11:54.282Z,3.47
2018-05-16T19:14:21.831Z,2.80
2018-05-16T19:16:49.449Z,3.17
2018-05-16T19:19:18.014Z,2.70
2018-05-16T19:21:45.538Z,3.40
2018-05-16T19:24:13.055Z,3.37
2018-05-16T19:26:40.568Z,3.30
2018-05-16T19:29:08.069Z,3.50
2018-05-16T19:31:35.559Z,3.53
2018-05-16T19:34:03.062Z,3.53
2018-05-16T19:36:30.585Z,4.03
2018-05-16T19:38:58.091Z,39.47
2018-05-16T19:41:25.739Z,4.00
2018-05-16T19:43:53.269Z,3.50
2018-05-16T19:46:20.854Z,3.07
2018-05-16T19:48:48.327Z,9.87
2018-05-16T19:51:15.833Z,3.80
2018-05-16T19:53:43.360Z,5.13
2018-05-16T19:56:10.947Z,3.23
2018-05-16T19:58:38.556Z,2.70
2018-05-16T20:01:06.027Z,2.77
2018-05-16T20:03:33.518Z,2.70
2018-05-16T20:06:01.918Z,3.80
2018-05-16T20:08:29.424Z,2.83
2018-05-16T20:10:56.948Z,3.40
2018-05-16T20:13:24.490Z,2.97
2018-05-16T20:15:51.997Z,2.70
2018-05-16T20:18:19.491Z,2.90
2018-05-16T20:20:46.999Z,2.67
2018-05-16T20:23:14.503Z,16.23
2018-05-16T20:25:42.076Z,4.53
2018-05-16T20:28:09.566Z,3.03
2018-05-16T20:30:37.077Z,2.87
2018-05-16T20:33:04.583Z,2.80
2018-05-16T20:35:32.103Z,2.80
2018-05-16T20:37:59.607Z,3.00
2018-05-16T20:40:27.112Z,3.07
2018-05-16T20:42:54.748Z,2.97
2018-05-16T20:45:22.345Z,2.83
2018-05-16T20:47:49.804Z,2.33
2018-05-16T20:50:17.348Z,6.03
2018-05-16T20:52:44.858Z,3.33
2018-05-16T20:55:12.416Z,2.70
2018-05-16T20:57:39.931Z,2.97
2018-05-16T21:00:07.519Z,2.90
2018-05-16T21:02:35.013Z,2.63
2018-05-16T21:05:02.559Z,2.40
2018-05-16T21:07:30.402Z,3.13
2018-05-16T21:09:58.266Z,3.03
2018-05-16T21:12:25.758Z,3.27
2018-05-16T21:14:54.264Z,2.70
2018-05-16T21:17:21.759Z,2.53
2018-05-16T21:19:49.256Z,3.00
2018-05-16T21:22:16.757Z,2.90
2018-05-16T21:24:44.255Z,3.30
2018-05-16T21:29:49.059Z,3.13
2018-05-16T21:32:16.571Z,3.20
2018-05-16T21:34:44.122Z,3.20
2018-05-16T21:37:11.663Z,3.10
2018-05-16T21:39:39.159Z,3.87
2018-05-16T21:42:06.659Z,3.87
2018-05-16T21:44:34.188Z,3.90
2018-05-16T21:47:01.703Z,4.60
2018-05-16T21:49:29.220Z,4.00
2018-05-16T21:51:56.811Z,3.87
2018-05-16T21:54:24.310Z,4.33
2018-05-16T21:56:51.817Z,4.20
2018-05-16T21:59:19.356Z,4.17
2018-05-16T22:01:46.900Z,3.50
2018-05-16T22:04:14.407Z,3.83
2018-05-16T22:06:41.908Z,4.07
2018-05-16T22:09:09.467Z,3.80
2018-05-16T22:11:36.970Z,4.10
2018-05-16T22:14:04.462Z,4.40
2018-05-16T22:16:31.962Z,4.00
2018-05-16T22:18:59.481Z,3.97
2018-05-16T22:21:26.980Z,4.13
2018-05-16T22:23:54.532Z,4.10
2018-05-16T22:26:22.996Z,3.80
2018-05-16T22:28:50.550Z,4.10
2018-05-16T22:31:23.689Z,3.87
2018-05-16T22:33:56.676Z,4.10
2018-05-16T22:36:29.849Z,4.20
2018-05-16T22:39:03.815Z,4.03
2018-05-16T22:41:36.882Z,3.70
2018-05-16T22:44:06.209Z,3.83
2018-05-16T22:46:33.762Z,4.03
2018-05-16T22:49:01.251Z,3.57
2018-05-16T22:51:28.783Z,4.20
2018-05-16T22:53:56.285Z,4.17
2018-05-16T22:56:23.780Z,3.90
2018-05-16T22:58:51.279Z,3.57
2018-05-16T23:01:18.767Z,4.10
2018-05-16T23:03:46.271Z,4.23
2018-05-16T23:06:13.763Z,3.60
2018-05-16T23:08:41.359Z,3.30
2018-05-16T23:11:08.842Z,3.67
2018-05-16T23:13:36.334Z,4.50
2018-05-16T23:16:03.950Z,4.03
2018-05-16T23:18:31.458Z,4.27
2018-05-16T23:20:58.952Z,3.97
2018-05-16T23:23:26.454Z,4.10
2018-05-16T23:25:53.984Z,4.20
2018-05-16T23:28:21.492Z,4.40
2018-05-16T23:30:49.067Z,3.93
2018-05-16T23:33:16.511Z,3.47
2018-05-16T23:35:44.375Z,3.23
2018-05-16T23:38:11.859Z,3.57
2018-05-16T23:40:39.388Z,2.60
2018-05-16T23:43:06.881Z,2.60
2018-05-16T23:45:34.436Z,2.47
2018-05-16T23:48:01.986Z,2.50
2018-05-16T23:50:29.497Z,2.07
2018-05-16T23:52:57.014Z,2.30
2018-05-16T23:55:24.510Z,2.80
2018-05-16T23:57:52.027Z,2.60
